sensor_id;sensor_type;location;lat;lon;timestamp;pressure;altitude;pressure_sealevel;temperature;humidity
41260;BME280;26993;48.958;9.330;2022-10-26T00:00:21;98490.78;;;12.21;100.00
41260;BME280;26993;48.958;9.330;2022-10-26T00:03:07;98482.97;;;12.29;99.11
41260;BME280;26993;48.958;9.330;2022-10-26T00:05:54;98479.63;;;12.18;99.36
41260;BME280;26993;48.958;9.330;2022-10-26T00:08:47;98474.53;;;12.09;100.00
41260;BME280;26993;48.958;9.330;2022-10-26T00:11:34;98471.88;;;12.16;100.00
41260;BME280;26993;48.958;9.330;2022-10-26T00:14:21;98484.81;;;12.12;100.00
41260;BME280;26993;48.958;9.330;2022-10-26T00:17:09;98483.22;;;11.97;100.00
41260;BME280;26993;48.958;9.330;2022-10-26T00:19:55;98468.56;;;12.02;100.00
41260;BME280;26993;48.958;9.330;2022-10-26T00:22:42;98461.69;;;11.99;100.00
41260;BME280;26993;48.958;9.330;2022-10-26T00:25:29;98478.75;;;12.22;100.00
41260;BME280;26993;48.958;9.330;2022-10-26T00:28:15;98477.03;;;12.19;100.00
41260;BME280;26993;48.958;9.330;2022-10-26T00:31:03;98479.53;;;12.27;100.00
41260;BME280;26993;48.958;9.330;2022-10-26T00:33:52;98476.88;;;12.41;99.15
41260;BME280;26993;48.958;9.330;2022-10-26T00:36:40;98475.16;;;12.37;98.79
41260;BME280;26993;48.958;9.330;2022-10-26T00:39:26;98473.44;;;12.37;99.27
41260;BME280;26993;48.958;9.330;2022-10-26T00:42:17;98469.84;;;12.52;97.94
41260;BME280;26993;48.958;9.330;2022-10-26T00:45:09;98476.88;;;12.40;98.87
41260;BME280;26993;48.958;9.330;2022-10-26T00:48:06;98481.09;;;12.48;98.37
41260;BME280;26993;48.958;9.330;2022-10-26T00:50:57;98473.38;;;12.45;98.78
41260;BME280;26993;48.958;9.330;2022-10-26T00:53:46;98479.34;;;12.49;98.40
41260;BME280;26993;48.958;9.330;2022-10-26T00:56:33;98480.28;;;12.45;98.83
41260;BME280;26993;48.958;9.330;2022-10-26T00:59:21;98485.47;;;12.43;99.51
41260;BME280;26993;48.958;9.330;2022-10-26T01:02:08;98483.72;;;12.41;100.00
41260;BME280;26993;48.958;9.330;2022-10-26T01:04:55;98474.34;;;12.29;100.00
41260;BME280;26993;48.958;9.330;2022-10-26T01:07:44;98477.78;;;12.31;100.00
41260;BME280;26993;48.958;9.330;2022-10-26T01:10:34;98483.81;;;12.33;100.00
41260;BME280;26993;48.958;9.330;2022-10-26T01:13:21;98481.28;;;12.27;100.00
41260;BME280;26993;48.958;9.330;2022-10-26T01:16:23;98484.69;;;12.29;100.00
41260;BME280;26993;48.958;9.330;2022-10-26T01:19:39;98493.34;;;12.25;100.00
41260;BME280;26993;48.958;9.330;2022-10-26T01:22:36;98487.34;;;12.24;100.00
41260;BME280;26993;48.958;9.330;2022-10-26T01:25:41;98482.19;;;12.18;100.00
41260;BME280;26993;48.958;9.330;2022-10-26T01:28:49;98487.38;;;12.19;100.00
41260;BME280;26993;48.958;9.330;2022-10-26T01:31:42;98481.34;;;12.17;100.00
41260;BME280;26993;48.958;9.330;2022-10-26T01:34:34;98475.31;;;12.20;100.00
41260;BME280;26993;48.958;9.330;2022-10-26T01:37:24;98484.75;;;12.21;100.00
41260;BME280;26993;48.958;9.330;2022-10-26T01:40:16;98468.38;;;12.24;100.00
41260;BME280;26993;48.958;9.330;2022-10-26T01:43:07;98464.03;;;12.29;100.00
41260;BME280;26993;48.958;9.330;2022-10-26T01:45:56;98459.75;;;12.26;100.00
41260;BME280;26993;48.958;9.330;2022-10-26T01:48:45;98452.00;;;12.29;100.00
41260;BME280;26993;48.958;9.330;2022-10-26T01:51:35;98440.75;;;12.32;100.00
41260;BME280;26993;48.958;9.330;2022-10-26T01:54:22;98434.66;;;12.39;100.00
41260;BME280;26993;48.958;9.330;2022-10-26T01:57:11;98432.78;;;12.57;98.59
41260;BME280;26993;48.958;9.330;2022-10-26T02:00:05;98425.78;;;12.66;97.76
41260;BME280;26993;48.958;9.330;2022-10-26T02:02:59;98425.78;;;12.69;97.40
41260;BME280;26993;48.958;9.330;2022-10-26T02:05:59;98425.69;;;12.74;96.89
41260;BME280;26993;48.958;9.330;2022-10-26T02:08:57;98420.53;;;12.76;96.40
41260;BME280;26993;48.958;9.330;2022-10-26T02:11:47;98420.47;;;12.79;96.46
41260;BME280;26993;48.958;9.330;2022-10-26T02:14:40;98430.75;;;12.87;96.37
41260;BME280;26993;48.958;9.330;2022-10-26T02:17:37;98417.81;;;12.87;97.12
41260;BME280;26993;48.958;9.330;2022-10-26T02:20:32;98416.84;;;12.98;96.40
41260;BME280;26993;48.958;9.330;2022-10-26T02:23:22;98408.13;;;13.06;95.96
41260;BME280;26993;48.958;9.330;2022-10-26T02:26:12;98402.94;;;13.04;96.94
41260;BME280;26993;48.958;9.330;2022-10-26T02:29:04;98402.31;;;12.87;97.14
41260;BME280;26993;48.958;9.330;2022-10-26T02:31:53;98410.88;;;12.89;97.74
41260;BME280;26993;48.958;9.330;2022-10-26T02:34:44;98423.09;;;12.77;98.06
41260;BME280;26993;48.958;9.330;2022-10-26T02:37:32;98422.28;;;12.72;99.26
41260;BME280;26993;48.958;9.330;2022-10-26T02:40:25;98433.50;;;12.71;100.00
41260;BME280;26993;48.958;9.330;2022-10-26T02:43:14;98432.75;;;12.61;100.00
41260;BME280;26993;48.958;9.330;2022-10-26T02:46:08;98437.09;;;12.58;100.00
41260;BME280;26993;48.958;9.330;2022-10-26T02:48:56;98439.59;;;12.62;100.00
41260;BME280;26993;48.958;9.330;2022-10-26T02:51:45;98446.53;;;12.60;100.00
41260;BME280;26993;48.958;9.330;2022-10-26T02:54:38;98448.69;;;12.10;100.00
41260;BME280;26993;48.958;9.330;2022-10-26T02:57:30;98456.47;;;12.05;100.00
41260;BME280;26993;48.958;9.330;2022-10-26T03:00:18;98467.75;;;11.89;100.00
41260;BME280;26993;48.958;9.330;2022-10-26T03:03:05;98471.09;;;12.06;100.00
41260;BME280;26993;48.958;9.330;2022-10-26T03:05:52;98475.44;;;12.06;100.00
41260;BME280;26993;48.958;9.330;2022-10-26T03:08:38;98474.50;;;12.15;100.00
41260;BME280;26993;48.958;9.330;2022-10-26T03:11:25;98463.34;;;12.06;100.00
41260;BME280;26993;48.958;9.330;2022-10-26T03:14:13;98458.25;;;11.99;100.00
41260;BME280;26993;48.958;9.330;2022-10-26T03:17:00;98465.91;;;12.08;100.00
41260;BME280;26993;48.958;9.330;2022-10-26T03:19:46;98474.59;;;11.99;100.00
41260;BME280;26993;48.958;9.330;2022-10-26T03:22:33;98476.28;;;12.05;100.00
41260;BME280;26993;48.958;9.330;2022-10-26T03:25:20;98483.19;;;11.95;100.00
41260;BME280;26993;48.958;9.330;2022-10-26T03:28:07;98489.25;;;11.91;100.00
41260;BME280;26993;48.958;9.330;2022-10-26T03:30:55;98485.81;;;11.97;100.00
41260;BME280;26993;48.958;9.330;2022-10-26T03:33:42;98485.78;;;11.94;100.00
41260;BME280;26993;48.958;9.330;2022-10-26T03:36:29;98485.78;;;11.98;100.00
41260;BME280;26993;48.958;9.330;2022-10-26T03:39:15;98496.97;;;12.00;100.00
41260;BME280;26993;48.958;9.330;2022-10-26T03:42:02;98484.03;;;12.05;100.00
41260;BME280;26993;48.958;9.330;2022-10-26T03:44:49;98489.19;;;12.06;100.00
41260;BME280;26993;48.958;9.330;2022-10-26T03:47:43;98496.06;;;12.08;100.00
41260;BME280;26993;48.958;9.330;2022-10-26T03:50:30;98498.72;;;11.89;100.00
41260;BME280;26993;48.958;9.330;2022-10-26T03:53:17;98499.53;;;12.02;100.00
41260;BME280;26993;48.958;9.330;2022-10-26T03:56:04;98498.59;;;12.11;100.00
41260;BME280;26993;48.958;9.330;2022-10-26T03:58:51;98502.03;;;12.16;100.00
41260;BME280;26993;48.958;9.330;2022-10-26T04:01:37;98507.31;;;12.00;100.00
41260;BME280;26993;48.958;9.330;2022-10-26T04:04:25;98510.75;;;11.99;100.00
41260;BME280;26993;48.958;9.330;2022-10-26T04:07:12;98501.25;;;12.00;100.00
41260;BME280;26993;48.958;9.330;2022-10-26T04:09:59;98499.41;;;12.22;100.00
41260;BME280;26993;48.958;9.330;2022-10-26T04:12:45;98502.84;;;12.21;100.00
41260;BME280;26993;48.958;9.330;2022-10-26T04:15:32;98499.34;;;12.25;100.00
41260;BME280;26993;48.958;9.330;2022-10-26T04:18:19;98495.84;;;12.32;100.00
41260;BME280;26993;48.958;9.330;2022-10-26T04:21:07;98492.38;;;12.40;100.00
41260;BME280;26993;48.958;9.330;2022-10-26T04:23:53;98487.25;;;12.35;100.00
41260;BME280;26993;48.958;9.330;2022-10-26T04:26:40;98486.38;;;12.37;100.00
41260;BME280;26993;48.958;9.330;2022-10-26T04:29:27;98480.38;;;12.31;100.00
41260;BME280;26993;48.958;9.330;2022-10-26T04:32:13;98475.22;;;12.31;100.00
41260;BME280;26993;48.958;9.330;2022-10-26T04:35:00;98472.59;;;12.35;100.00
41260;BME280;26993;48.958;9.330;2022-10-26T04:37:48;98464.19;;;12.07;100.00
41260;BME280;26993;48.958;9.330;2022-10-26T04:40:35;98468.59;;;11.91;100.00
41260;BME280;26993;48.958;9.330;2022-10-26T04:43:21;98467.63;;;12.11;100.00
41260;BME280;26993;48.958;9.330;2022-10-26T04:46:08;98466.00;;;12.00;100.00
41260;BME280;26993;48.958;9.330;2022-10-26T04:48:57;98461.72;;;11.90;100.00
41260;BME280;26993;48.958;9.330;2022-10-26T04:51:44;98466.00;;;11.97;100.00
41260;BME280;26993;48.958;9.330;2022-10-26T04:54:32;98458.25;;;12.00;100.00
41260;BME280;26993;48.958;9.330;2022-10-26T04:57:19;98462.53;;;12.03;100.00
41260;BME280;26993;48.958;9.330;2022-10-26T05:00:06;98454.72;;;12.09;100.00
41260;BME280;26993;48.958;9.330;2022-10-26T05:02:57;98466.00;;;11.94;100.00
41260;BME280;26993;48.958;9.330;2022-10-26T05:05:44;98480.56;;;12.08;100.00
41260;BME280;26993;48.958;9.330;2022-10-26T05:08:32;98472.78;;;12.14;100.00
41260;BME280;26993;48.958;9.330;2022-10-26T05:11:20;98465.97;;;12.05;100.00
41260;BME280;26993;48.958;9.330;2022-10-26T05:14:06;98466.00;;;11.96;100.00
41260;BME280;26993;48.958;9.330;2022-10-26T05:16:54;98461.63;;;12.09;100.00
41260;BME280;26993;48.958;9.330;2022-10-26T05:19:42;98468.38;;;12.24;100.00
41260;BME280;26993;48.958;9.330;2022-10-26T05:22:28;98464.06;;;12.27;100.00
41260;BME280;26993;48.958;9.330;2022-10-26T05:25:15;98468.44;;;12.20;100.00
41260;BME280;26993;48.958;9.330;2022-10-26T05:28:05;98479.69;;;12.13;100.00
41260;BME280;26993;48.958;9.330;2022-10-26T05:30:53;98495.16;;;12.13;100.00
41260;BME280;26993;48.958;9.330;2022-10-26T05:33:40;98491.72;;;12.11;100.00
41260;BME280;26993;48.958;9.330;2022-10-26T05:36:26;98486.53;;;12.14;100.00
41260;BME280;26993;48.958;9.330;2022-10-26T05:39:13;98491.72;;;12.11;100.00
41260;BME280;26993;48.958;9.330;2022-10-26T05:41:59;98493.59;;;11.86;100.00
41260;BME280;26993;48.958;9.330;2022-10-26T05:44:47;98498.78;;;11.80;100.00
41260;BME280;26993;48.958;9.330;2022-10-26T05:47:37;98492.75;;;11.82;100.00
41260;BME280;26993;48.958;9.330;2022-10-26T05:50:23;98503.06;;;11.84;100.00
41260;BME280;26993;48.958;9.330;2022-10-26T05:53:10;98508.28;;;11.74;100.00
41260;BME280;26993;48.958;9.330;2022-10-26T05:55:57;98512.47;;;11.91;100.00
41260;BME280;26993;48.958;9.330;2022-10-26T05:58:45;98517.63;;;11.97;100.00
41260;BME280;26993;48.958;9.330;2022-10-26T06:01:44;98522.88;;;11.77;100.00
41260;BME280;26993;48.958;9.330;2022-10-26T06:04:36;98525.44;;;11.80;100.00
41260;BME280;26993;48.958;9.330;2022-10-26T06:07:24;98534.94;;;11.77;100.00
41260;BME280;26993;48.958;9.330;2022-10-26T06:10:12;98532.34;;;11.81;100.00
41260;BME280;26993;48.958;9.330;2022-10-26T06:12:59;98545.19;;;11.92;100.00
41260;BME280;26993;48.958;9.330;2022-10-26T06:15:55;98543.44;;;12.00;100.00
41260;BME280;26993;48.958;9.330;2022-10-26T06:18:53;98546.78;;;12.19;100.00
41260;BME280;26993;48.958;9.330;2022-10-26T06:21:55;98555.44;;;12.12;100.00
41260;BME280;26993;48.958;9.330;2022-10-26T06:24:50;98559.72;;;12.12;100.00
41260;BME280;26993;48.958;9.330;2022-10-26T06:27:43;98563.91;;;12.33;100.00
41260;BME280;26993;48.958;9.330;2022-10-26T06:30:33;98568.16;;;12.40;100.00
41260;BME280;26993;48.958;9.330;2022-10-26T06:33:20;98575.00;;;12.44;100.00
41260;BME280;26993;48.958;9.330;2022-10-26T06:36:17;98575.84;;;12.49;100.00
41260;BME280;26993;48.958;9.330;2022-10-26T06:39:07;98588.53;;;12.77;100.00
41260;BME280;26993;48.958;9.330;2022-10-26T06:41:56;98588.47;;;12.85;100.00
41260;BME280;26993;48.958;9.330;2022-10-26T06:44:43;98587.69;;;12.78;100.00
41260;BME280;26993;48.958;9.330;2022-10-26T06:47:33;98590.28;;;12.77;100.00
41260;BME280;26993;48.958;9.330;2022-10-26T06:50:30;98604.88;;;12.82;100.00
41260;BME280;26993;48.958;9.330;2022-10-26T06:53:27;98613.41;;;12.94;100.00
41260;BME280;26993;48.958;9.330;2022-10-26T06:56:15;98611.63;;;12.96;100.00
41260;BME280;26993;48.958;9.330;2022-10-26T06:59:07;98608.94;;;13.10;100.00
41260;BME280;26993;48.958;9.330;2022-10-26T07:01:54;98608.91;;;13.14;100.00
41260;BME280;26993;48.958;9.330;2022-10-26T07:04:40;98620.94;;;13.17;100.00
41260;BME280;26993;48.958;9.330;2022-10-26T07:07:29;98607.97;;;13.18;100.00
41260;BME280;26993;48.958;9.330;2022-10-26T07:10:17;98603.69;;;13.16;100.00
41260;BME280;26993;48.958;9.330;2022-10-26T07:13:04;98607.91;;;13.28;100.00
41260;BME280;26993;48.958;9.330;2022-10-26T07:15:51;98607.94;;;13.23;100.00
41260;BME280;26993;48.958;9.330;2022-10-26T07:18:38;98612.34;;;13.15;100.00
41260;BME280;26993;48.958;9.330;2022-10-26T07:21:25;98627.94;;;13.04;100.00
41260;BME280;26993;48.958;9.330;2022-10-26T07:24:11;98633.09;;;13.09;100.00
41260;BME280;26993;48.958;9.330;2022-10-26T07:26:59;98624.41;;;13.16;100.00
41260;BME280;26993;48.958;9.330;2022-10-26T07:29:46;98622.66;;;13.21;100.00
41260;BME280;26993;48.958;9.330;2022-10-26T07:32:33;98620.78;;;13.32;100.00
41260;BME280;26993;48.958;9.330;2022-10-26T07:35:19;98627.78;;;13.23;100.00
41260;BME280;26993;48.958;9.330;2022-10-26T07:38:06;98630.34;;;13.24;100.00
41260;BME280;26993;48.958;9.330;2022-10-26T07:40:53;98631.09;;;13.42;100.00
41260;BME280;26993;48.958;9.330;2022-10-26T07:43:41;98627.66;;;13.40;100.00
41260;BME280;26993;48.958;9.330;2022-10-26T07:46:29;98631.94;;;13.42;100.00
41260;BME280;26993;48.958;9.330;2022-10-26T07:49:16;98629.38;;;13.36;100.00
41260;BME280;26993;48.958;9.330;2022-10-26T07:52:03;98638.00;;;13.40;100.00
41260;BME280;26993;48.958;9.330;2022-10-26T07:54:49;98636.28;;;13.40;100.00
41260;BME280;26993;48.958;9.330;2022-10-26T07:57:36;98632.88;;;13.33;100.00
41260;BME280;26993;48.958;9.330;2022-10-26T08:00:24;98644.03;;;13.39;100.00
41260;BME280;26993;48.958;9.330;2022-10-26T08:03:12;98643.88;;;13.56;100.00
41260;BME280;26993;48.958;9.330;2022-10-26T08:05:59;98650.00;;;13.47;100.00
41260;BME280;26993;48.958;9.330;2022-10-26T08:08:47;98645.81;;;13.32;100.00
41260;BME280;26993;48.958;9.330;2022-10-26T08:11:34;98646.53;;;13.49;100.00
41260;BME280;26993;48.958;9.330;2022-10-26T08:14:21;98652.63;;;13.42;100.00
41260;BME280;26993;48.958;9.330;2022-10-26T08:17:09;98644.03;;;13.39;100.00
41260;BME280;26993;48.958;9.330;2022-10-26T08:19:56;98639.50;;;13.62;100.00
41260;BME280;26993;48.958;9.330;2022-10-26T08:22:43;98648.94;;;13.65;100.00
41260;BME280;26993;48.958;9.330;2022-10-26T08:25:29;98646.28;;;13.73;100.00
41260;BME280;26993;48.958;9.330;2022-10-26T08:28:16;98650.66;;;13.66;100.00
41260;BME280;26993;48.958;9.330;2022-10-26T08:31:03;98655.75;;;13.75;100.00
41260;BME280;26993;48.958;9.330;2022-10-26T08:33:53;98653.13;;;13.77;100.00
41260;BME280;26993;48.958;9.330;2022-10-26T08:36:40;98652.47;;;13.58;100.00
41260;BME280;26993;48.958;9.330;2022-10-26T08:39:28;98652.41;;;13.64;100.00
41260;BME280;26993;48.958;9.330;2022-10-26T08:42:18;98653.13;;;13.78;100.00
41260;BME280;26993;48.958;9.330;2022-10-26T08:45:15;98661.09;;;13.60;100.00
41260;BME280;26993;48.958;9.330;2022-10-26T08:48:06;98667.84;;;13.76;100.00
41260;BME280;26993;48.958;9.330;2022-10-26T08:51:00;98663.50;;;13.77;100.00
41260;BME280;26993;48.958;9.330;2022-10-26T08:53:51;98662.44;;;13.93;100.00
41260;BME280;26993;48.958;9.330;2022-10-26T08:56:43;98667.59;;;13.98;100.00
41260;BME280;26993;48.958;9.330;2022-10-26T08:59:35;98670.13;;;14.01;100.00
41260;BME280;26993;48.958;9.330;2022-10-26T09:02:24;98669.13;;;14.13;100.00
41260;BME280;26993;48.958;9.330;2022-10-26T09:05:14;98688.25;;;14.03;100.00
41260;BME280;26993;48.958;9.330;2022-10-26T09:08:07;98689.03;;;14.11;100.00
41260;BME280;26993;48.958;9.330;2022-10-26T09:11:06;98687.06;;;14.28;100.00
41260;BME280;26993;48.958;9.330;2022-10-26T09:14:00;98693.97;;;14.30;100.00
41260;BME280;26993;48.958;9.330;2022-10-26T09:16:56;98688.81;;;14.28;100.00
41260;BME280;26993;48.958;9.330;2022-10-26T09:20:01;98691.94;;;14.50;100.00
41260;BME280;26993;48.958;9.330;2022-10-26T09:22:56;98693.50;;;14.62;100.00
41260;BME280;26993;48.958;9.330;2022-10-26T09:25:53;98702.03;;;14.75;100.00
41260;BME280;26993;48.958;9.330;2022-10-26T09:28:44;98703.66;;;14.81;100.00
41260;BME280;26993;48.958;9.330;2022-10-26T09:31:38;98708.25;;;15.19;100.00
41260;BME280;26993;48.958;9.330;2022-10-26T09:34:30;98711.34;;;15.42;99.02
41260;BME280;26993;48.958;9.330;2022-10-26T09:37:20;98718.25;;;15.44;98.01
41260;BME280;26993;48.958;9.330;2022-10-26T09:40:14;98719.47;;;15.71;97.97
41260;BME280;26993;48.958;9.330;2022-10-26T09:43:08;98719.75;;;16.05;97.19
41260;BME280;26993;48.958;9.330;2022-10-26T09:45:56;98726.81;;;16.42;95.33
41260;BME280;26993;48.958;9.330;2022-10-26T09:48:46;98730.84;;;16.57;94.61
41260;BME280;26993;48.958;9.330;2022-10-26T09:51:37;98735.72;;;16.71;91.83
41260;BME280;26993;48.958;9.330;2022-10-26T09:54:25;98734.66;;;16.79;92.49
41260;BME280;26993;48.958;9.330;2022-10-26T09:57:14;98733.44;;;16.96;92.47
41260;BME280;26993;48.958;9.330;2022-10-26T10:00:03;98740.53;;;16.89;91.93
41260;BME280;26993;48.958;9.330;2022-10-26T10:02:51;98735.00;;;17.03;93.45
41260;BME280;26993;48.958;9.330;2022-10-26T10:05:38;98732.13;;;17.16;93.65
41260;BME280;26993;48.958;9.330;2022-10-26T10:08:25;98740.31;;;17.36;91.10
41260;BME280;26993;48.958;9.330;2022-10-26T10:11:13;98742.66;;;17.47;90.40
41260;BME280;26993;48.958;9.330;2022-10-26T10:14:05;98725.75;;;17.64;90.19
41260;BME280;26993;48.958;9.330;2022-10-26T10:16:55;98720.19;;;17.76;87.34
41260;BME280;26993;48.958;9.330;2022-10-26T10:19:43;98728.75;;;17.81;87.87
41260;BME280;26993;48.958;9.330;2022-10-26T10:22:30;98727.84;;;17.82;89.26
41260;BME280;26993;48.958;9.330;2022-10-26T10:25:22;98724.53;;;17.77;87.77
41260;BME280;26993;48.958;9.330;2022-10-26T10:28:19;98734.22;;;17.72;87.34
41260;BME280;26993;48.958;9.330;2022-10-26T10:31:18;98738.66;;;17.68;88.18
41260;BME280;26993;48.958;9.330;2022-10-26T10:34:15;98742.38;;;17.58;89.79
41260;BME280;26993;48.958;9.330;2022-10-26T10:37:05;98748.59;;;17.52;89.27
41260;BME280;26993;48.958;9.330;2022-10-26T10:39:55;98749.47;;;17.51;90.75
41260;BME280;26993;48.958;9.330;2022-10-26T10:42:43;98758.22;;;17.49;90.36
41260;BME280;26993;48.958;9.330;2022-10-26T10:45:30;98755.63;;;17.49;88.58
41260;BME280;26993;48.958;9.330;2022-10-26T10:48:19;98761.56;;;17.55;91.08
41260;BME280;26993;48.958;9.330;2022-10-26T10:51:09;98758.78;;;17.62;90.02
41260;BME280;26993;48.958;9.330;2022-10-26T10:53:57;98754.41;;;17.98;91.10
41260;BME280;26993;48.958;9.330;2022-10-26T10:56:46;98759.38;;;18.37;87.30
41260;BME280;26993;48.958;9.330;2022-10-26T10:59:43;98762.53;;;18.79;85.55
41260;BME280;26993;48.958;9.330;2022-10-26T11:03:01;98755.69;;;18.75;85.42
41260;BME280;26993;48.958;9.330;2022-10-26T11:06:00;98752.38;;;18.99;85.13
41260;BME280;26993;48.958;9.330;2022-10-26T11:08:55;98753.97;;;19.03;82.33
41260;BME280;26993;48.958;9.330;2022-10-26T11:11:46;98753.06;;;19.05;81.74
41260;BME280;26993;48.958;9.330;2022-10-26T11:14:37;98760.22;;;19.26;81.32
41260;BME280;26993;48.958;9.330;2022-10-26T11:17:29;98765.41;;;19.55;81.17
41260;BME280;26993;48.958;9.330;2022-10-26T11:20:19;98765.19;;;19.61;80.89
41260;BME280;26993;48.958;9.330;2022-10-26T11:23:10;98762.03;;;19.51;80.09
41260;BME280;26993;48.958;9.330;2022-10-26T11:26:08;98764.19;;;19.38;79.28
41260;BME280;26993;48.958;9.330;2022-10-26T11:29:01;98764.16;;;19.40;81.36
41260;BME280;26993;48.958;9.330;2022-10-26T11:31:52;98768.84;;;19.57;80.88
41260;BME280;26993;48.958;9.330;2022-10-26T11:34:45;98773.50;;;19.47;81.74
41260;BME280;26993;48.958;9.330;2022-10-26T11:37:38;98771.94;;;19.41;83.14
41260;BME280;26993;48.958;9.330;2022-10-26T11:40:37;98776.13;;;19.47;83.93
41260;BME280;26993;48.958;9.330;2022-10-26T11:43:33;98777.88;;;19.46;84.45
41260;BME280;26993;48.958;9.330;2022-10-26T11:46:26;98771.06;;;19.41;83.66
41260;BME280;26993;48.958;9.330;2022-10-26T11:49:18;98776.34;;;19.39;83.50
41260;BME280;26993;48.958;9.330;2022-10-26T11:52:12;98769.53;;;19.35;83.39
41260;BME280;26993;48.958;9.330;2022-10-26T11:55:02;98770.19;;;19.42;84.23
41260;BME280;26993;48.958;9.330;2022-10-26T11:57:50;98767.31;;;19.49;82.36
41260;BME280;26993;48.958;9.330;2022-10-26T12:00:44;98775.16;;;19.49;82.94
41260;BME280;26993;48.958;9.330;2022-10-26T12:03:34;98781.75;;;19.61;81.94
41260;BME280;26993;48.958;9.330;2022-10-26T12:06:24;98784.91;;;19.71;81.98
41260;BME280;26993;48.958;9.330;2022-10-26T12:09:15;98786.72;;;19.69;81.31
41260;BME280;26993;48.958;9.330;2022-10-26T12:12:06;98783.94;;;19.74;81.22
41260;BME280;26993;48.958;9.330;2022-10-26T12:15:00;98787.44;;;20.00;81.45
41260;BME280;26993;48.958;9.330;2022-10-26T12:17:54;98783.44;;;19.89;79.05
41260;BME280;26993;48.958;9.330;2022-10-26T12:20:54;98782.78;;;20.08;80.57
41260;BME280;26993;48.958;9.330;2022-10-26T12:23:54;98791.13;;;20.19;80.27
41260;BME280;26993;48.958;9.330;2022-10-26T12:26:50;98785.28;;;20.36;78.59
41260;BME280;26993;48.958;9.330;2022-10-26T12:29:39;98790.06;;;20.49;76.79
41260;BME280;26993;48.958;9.330;2022-10-26T12:32:48;98795.81;;;20.35;75.99
41260;BME280;26993;48.958;9.330;2022-10-26T12:35:41;98796.06;;;20.27;77.54
41260;BME280;26993;48.958;9.330;2022-10-26T12:41:55;98802.84;;;20.33;76.57
41260;BME280;26993;48.958;9.330;2022-10-26T12:45:01;98801.53;;;20.21;75.93
41260;BME280;26993;48.958;9.330;2022-10-26T12:48:01;98799.78;;;20.21;75.57
41260;BME280;26993;48.958;9.330;2022-10-26T12:50:49;98801.59;;;20.19;74.85
41260;BME280;26993;48.958;9.330;2022-10-26T12:53:36;98808.56;;;20.19;72.88
41260;BME280;26993;48.958;9.330;2022-10-26T12:56:27;98816.59;;;20.14;72.90
41260;BME280;26993;48.958;9.330;2022-10-26T12:59:25;98815.94;;;20.07;72.83
41260;BME280;26993;48.958;9.330;2022-10-26T13:02:31;98813.06;;;20.15;73.75
41260;BME280;26993;48.958;9.330;2022-10-26T13:05:41;98817.50;;;20.13;72.26
41260;BME280;26993;48.958;9.330;2022-10-26T13:08:41;98814.72;;;20.18;71.95
41260;BME280;26993;48.958;9.330;2022-10-26T13:11:29;98812.88;;;20.21;73.25
41260;BME280;26993;48.958;9.330;2022-10-26T13:14:20;98822.47;;;20.21;74.12
41260;BME280;26993;48.958;9.330;2022-10-26T13:17:23;98825.97;;;20.20;74.20
41260;BME280;26993;48.958;9.330;2022-10-26T13:20:15;98826.34;;;20.34;73.34
41260;BME280;26993;48.958;9.330;2022-10-26T13:23:14;98826.41;;;20.33;73.25
41260;BME280;26993;48.958;9.330;2022-10-26T13:26:09;98829.66;;;20.39;72.83
41260;BME280;26993;48.958;9.330;2022-10-26T13:28:58;98828.00;;;20.37;73.38
41260;BME280;26993;48.958;9.330;2022-10-26T13:32:03;98832.31;;;20.38;72.50
41260;BME280;26993;48.958;9.330;2022-10-26T13:34:50;98827.06;;;20.39;73.07
41260;BME280;26993;48.958;9.330;2022-10-26T13:37:40;98838.41;;;20.38;72.86
41260;BME280;26993;48.958;9.330;2022-10-26T13:40:29;98844.56;;;20.37;72.75
41260;BME280;26993;48.958;9.330;2022-10-26T13:43:22;98839.81;;;20.23;74.31
41260;BME280;26993;48.958;9.330;2022-10-26T13:46:22;98838.09;;;20.48;73.11
41260;BME280;26993;48.958;9.330;2022-10-26T13:49:15;98850.84;;;20.32;73.67
41260;BME280;26993;48.958;9.330;2022-10-26T13:52:05;98845.44;;;20.61;73.11
41260;BME280;26993;48.958;9.330;2022-10-26T13:55:01;98839.53;;;20.56;71.71
41260;BME280;26993;48.958;9.330;2022-10-26T13:58:01;98847.38;;;20.56;72.65
41260;BME280;26993;48.958;9.330;2022-10-26T14:01:10;98850.22;;;20.50;72.41
41260;BME280;26993;48.958;9.330;2022-10-26T14:03:57;98852.19;;;20.43;72.55
41260;BME280;26993;48.958;9.330;2022-10-26T14:06:48;98848.34;;;20.54;73.22
41260;BME280;26993;48.958;9.330;2022-10-26T14:09:36;98843.44;;;20.44;72.79
41260;BME280;26993;48.958;9.330;2022-10-26T14:12:25;98856.44;;;20.46;73.56
41260;BME280;26993;48.958;9.330;2022-10-26T14:15:14;98856.50;;;20.44;74.37
41260;BME280;26993;48.958;9.330;2022-10-26T14:18:03;98859.13;;;20.44;74.94
41260;BME280;26993;48.958;9.330;2022-10-26T14:20:55;98859.81;;;20.24;75.71
41260;BME280;26993;48.958;9.330;2022-10-26T14:23:47;98856.22;;;20.28;74.31
41260;BME280;26993;48.958;9.330;2022-10-26T14:26:38;98856.38;;;20.24;75.50
41260;BME280;26993;48.958;9.330;2022-10-26T14:29:27;98863.69;;;20.39;74.51
41260;BME280;26993;48.958;9.330;2022-10-26T14:32:21;98864.09;;;20.27;76.67
41260;BME280;26993;48.958;9.330;2022-10-26T14:35:12;98862.75;;;20.15;75.65
41260;BME280;26993;48.958;9.330;2022-10-26T14:38:01;98872.31;;;20.16;77.06
41260;BME280;26993;48.958;9.330;2022-10-26T14:40:49;98875.44;;;20.27;75.22
41260;BME280;26993;48.958;9.330;2022-10-26T14:43:37;98872.44;;;20.13;76.02
41260;BME280;26993;48.958;9.330;2022-10-26T14:46:26;98866.97;;;19.94;77.82
41260;BME280;26993;48.958;9.330;2022-10-26T14:49:18;98876.41;;;19.98;77.35
41260;BME280;26993;48.958;9.330;2022-10-26T14:52:15;98877.22;;;20.00;77.66
41260;BME280;26993;48.958;9.330;2022-10-26T14:55:12;98881.22;;;19.84;78.07
41260;BME280;26993;48.958;9.330;2022-10-26T14:58:07;98874.53;;;20.02;77.54
41260;BME280;26993;48.958;9.330;2022-10-26T15:04:30;98884.41;;;19.93;77.89